Redmond, WA (98052)

1:51 AM PDT on September 25, 2016 (GMT -0700)
| | Change Station

Elev -9999 ft 0.00 °N, 0.00 °E | Updated

Mostly Cloudy
Mostly Cloudy
54 °F
Feels Like 54 °F
N
1
Wind Variable Wind from ESE
Gusts mph

Today
High -- | Low -- °F
--% Chance of Precip.
Yesterday
High -- | Low -- °F
Precip. -- in
Pressure 30.39 in
Visibility 10.0 miles
Clouds Overcast 7500 ft
Dew Point 45 °F
Humidity 72%
Rainfall --
Snow Depth Not available.
7:00 AM 6:58 PM
Waning Crescent, 29% visible
METAR KBFI 250753Z 34003KT 10SM OVC075 17/09 A3039 RMK AO2 SLP290 T01670089 401940133
Pressure 30.39 in
Visibility 10.0 miles
Clouds Overcast 7500 ft
Dew Point 45 °F
Humidity 72%
Rainfall --
Snow Depth Not available.
7:00 AM 6:58 PM
Waning Crescent, 29% visible
METAR KBFI 250753Z 34003KT 10SM OVC075 17/09 A3039 RMK AO2 SLP290 T01670089 401940133

10-Day Weather Forecast

Almanac

Astronomy

Sep. 25, 2016 Rise Set
Actual Time
Civil Twilight
Nautical Twilight
Astronomical Twilight
Moon
Length of Visible Light
Length of Day
Tomorrow will be .
, % of the Moon is Illuminated

Today's Extremes

State Highs State Lows

Community

WunderPhotos

Upload Photos

1,941,554 photos uploaded!

WunderBlog® & News

Nearby

Air Quality

  Air Quality AQ Index Pollutant
Not available.

Snow Depth

Station Depth Elevation

Earthquake Activity

City Distance Mag. Time & Date
Minimum magnitude displayed is 2.5.

Coastal Water Temperatures

Place Temperature

Stations

Nearby Weather Stations

Station Location Temp. Windchill Dew Point Humidity Wind Precip. Elev Updated Type
                   

Watches & Warnings

There are currently no watches in effect.